PDT,Max TemperatureF,Mean TemperatureF,Min TemperatureF,Max Dew PointF,MeanDew PointF,Min DewpointF,Max Humidity, Mean Humidity, Min Humidity, Max Sea Level PressureIn, Mean Sea Level PressureIn, Min Sea Level PressureIn, Max VisibilityMiles, Mean VisibilityMiles, Min VisibilityMiles, Max Wind SpeedMPH, Mean Wind SpeedMPH, Max Gust SpeedMPH,PrecipitationIn, CloudCover, Events, WindDirDegrees
2009-5-1,96,81,66,44,29,21,29,15,9,29.84,29.78,29.70,10,10,10,26,6,36,0.00,0,,241
2009-5-2,91,82,73,43,40,36,33,24,15,29.82,29.78,29.71,10,10,10,22,11,36,0.00,0,,268
2009-5-3,97,84,72,44,40,32,37,24,11,29.86,29.77,29.68,10,10,10,21,8,30,0.00,0,,287
2009-5-4,95,82,71,43,35,24,35,21,8,29.84,29.75,29.68,10,10,10,21,8,26,0.00,0,,310
2009-5-5,98,86,75,38,34,24,20,15,11,29.76,29.70,29.64,10,10,10,17,6,,0.00,0,,305
2009-5-6,102,88,73,39,36,31,28,17,9,29.82,29.73,29.65,10,10,10,12,5,,0.00,0,,219
2009-5-7,104,88,75,40,32,27,21,12,7,29.75,29.66,29.57,10,10,10,13,5,,0.00,0,,220
2009-5-8,105,88,73,32,25,19,19,10,5,29.67,29.60,29.54,10,10,10,13,5,21,0.00,0,,357
2009-5-9,106,89,73,35,28,21,19,11,7,29.71,29.62,29.54,10,10,10,18,7,32,0.00,0,,228
2009-5-10,102,90,77,37,29,25,18,11,7,29.71,29.64,29.58,10,10,10,10,6,16,0.00,0,,222
2009-5-11,104,90,77,40,32,22,22,13,6,29.69,29.61,29.52,10,10,10,18,5,24,0.00,0,,242
2009-5-12,102,88,77,32,25,18,17,10,5,29.65,29.57,29.49,10,10,10,14,7,23,0.00,0,,234
2009-5-13,100,86,72,30,25,19,19,11,8,29.69,29.62,29.55,10,10,10,13,5,,0.00,0,,201
2009-5-14,102,86,73,33,27,21,18,11,6,29.74,29.66,29.60,10,10,10,14,5,25,0.00,0,,229
2009-5-15,104,88,75,35,29,24,20,12,7,29.73,29.66,29.60,10,10,10,12,6,17,0.00,0,,254
2009-5-16,109,92,75,33,25,20,17,10,5,29.77,29.70,29.65,10,10,10,22,9,28,0.00,0,,348
2009-5-17,109,92,75,27,21,16,16,8,4,29.84,29.76,29.68,10,10,10,10,3,,0.00,0,,290
2009-5-18,106,94,82,41,31,23,17,11,8,29.83,29.72,29.65,10,10,10,28,7,39,0.00,0,,238
2009-5-19,107,93,81,39,31,23,19,11,6,29.75,29.68,29.60,10,10,10,20,8,30,0.00,0,,262
2009-5-20,104,92,82,37,30,26,15,11,7,29.74,29.67,29.59,10,10,10,17,7,22,0.00,0,,229
2009-5-21,100,89,79,41,33,28,21,13,10,29.74,29.66,29.58,10,10,10,16,9,22,0.00,0,,216
2009-5-22,96,88,80,53,48,40,38,27,17,29.77,29.69,29.61,10,10,10,15,10,23,0.00,0,,163
2009-5-23,99,86,73,53,41,27,46,23,8,29.78,29.70,29.61,10,10,10,18,9,26,0.00,0,,208
2009-5-24,100,87,75,35,24,4,21,11,4,29.75,29.68,29.60,10,10,10,17,10,25,0.00,0,,224
2009-5-25,99,86,73,33,23,13,20,10,5,29.71,29.64,29.56,10,10,10,17,5,30,0.00,0,,208
2009-5-26,102,88,73,31,23,16,16,10,5,29.73,29.67,29.61,10,10,10,14,6,20,0.00,0,,234
2009-5-27,100,90,79,31,22,15,16,9,5,29.77,29.70,29.63,10,10,10,13,6,,0.00,0,,266
2009-5-28,105,88,73,32,25,20,17,10,5,29.77,29.70,29.64,10,10,10,14,5,16,0.00,0,,156
2009-5-29,102,93,86,39,32,24,18,12,7,29.86,29.76,29.70,10,10,10,21,9,46,0.00,0,Rain,259
2009-5-30,100,87,75,57,37,25,52,18,8,29.94,29.77,29.65,10,10,10,20,7,29,0.01,0,Rain-Thunderstorm,68
2009-5-31,102,88,73,39,33,21,26,15,6,29.78,29.68,29.60,10,10,10,15,6,18,0.00,0,,225